createdAt,value
2023-06-04T00:00:00.567Z,66.47
2023-06-04T00:03:03.362Z,65.46
2023-06-04T00:06:06.044Z,64.36
2023-06-04T00:09:08.689Z,63.76
2023-06-04T00:12:11.364Z,63.63
2023-06-04T00:15:16.450Z,63.11
2023-06-04T00:18:19.075Z,62.74
2023-06-04T00:21:22.757Z,62.04
2023-06-04T00:24:25.400Z,62.65
2023-06-04T00:27:28.022Z,62.77
2023-06-04T00:30:30.733Z,61.77
2023-06-04T00:33:33.857Z,62.22
2023-06-04T00:36:36.521Z,62.62
2023-06-04T00:39:39.120Z,62.09
2023-06-04T00:42:41.768Z,63.85
2023-06-04T00:45:44.631Z,65.55
2023-06-04T00:48:47.350Z,64.40
2023-06-04T00:51:50.273Z,65.17
2023-06-04T00:54:53.465Z,64.57
2023-06-04T00:57:56.183Z,65.17
2023-06-04T01:01:00.985Z,65.22
2023-06-04T01:04:06.162Z,65.56
2023-06-04T01:07:10.249Z,66.08
2023-06-04T01:10:13.187Z,64.80
2023-06-04T01:13:15.977Z,64.99
2023-06-04T01:16:18.667Z,65.38
2023-06-04T01:19:52.501Z,66.20
2023-06-04T01:23:03.607Z,65.07
2023-06-04T01:26:06.610Z,64.70
2023-06-04T01:29:09.344Z,64.29
2023-06-04T01:32:12.156Z,63.37
2023-06-04T01:35:14.872Z,62.59
2023-06-04T01:38:17.672Z,62.47
2023-06-04T01:41:20.561Z,64.40
2023-06-04T01:44:23.591Z,65.40
2023-06-04T01:47:26.597Z,64.90
2023-06-04T01:50:29.265Z,64.42
2023-06-04T01:53:32.359Z,63.82
2023-06-04T01:56:34.999Z,64.30
2023-06-04T01:59:40.355Z,63.71
2023-06-04T02:02:46.944Z,64.13
2023-06-04T02:05:51.151Z,62.99
2023-06-04T02:08:55.351Z,62.12
2023-06-04T02:11:58.283Z,62.56
2023-06-04T02:15:01.257Z,61.91
2023-06-04T02:18:19.018Z,62.51
2023-06-04T02:21:21.927Z,62.59
2023-06-04T02:24:24.577Z,62.19
2023-06-04T02:27:27.139Z,62.82
2023-06-04T02:30:29.869Z,62.55
2023-06-04T02:33:32.581Z,62.56
2023-06-04T02:36:35.630Z,63.35
2023-06-04T02:39:38.213Z,63.63
2023-06-04T02:42:41.370Z,63.75
2023-06-04T02:45:44.073Z,62.71
2023-06-04T02:48:47.084Z,63.97
2023-06-04T02:51:49.617Z,64.29
2023-06-04T02:54:52.964Z,64.28
2023-06-04T02:57:55.545Z,63.91
2023-06-04T03:00:58.260Z,64.50
2023-06-04T03:04:04.940Z,63.32
2023-06-04T03:07:09.281Z,63.55
2023-06-04T03:10:13.208Z,63.89
2023-06-04T03:13:16.419Z,64.41
2023-06-04T03:16:19.176Z,63.12
2023-06-04T03:19:21.902Z,63.71
2023-06-04T03:22:24.852Z,64.00
2023-06-04T03:25:27.605Z,63.68
2023-06-04T03:28:31.884Z,62.62
2023-06-04T03:31:36.158Z,62.93
2023-06-04T03:34:38.941Z,63.41
2023-06-04T03:37:41.564Z,62.69
2023-06-04T03:40:45.228Z,62.31
2023-06-04T03:43:48.064Z,62.14
2023-06-04T03:46:50.916Z,62.38
2023-06-04T03:49:54.840Z,63.16
2023-06-04T03:52:57.880Z,62.65
2023-06-04T03:56:01.224Z,63.84
2023-06-04T03:59:05.348Z,63.85
2023-06-04T04:02:08.709Z,63.14
2023-06-04T04:05:13.275Z,64.53
2023-06-04T04:08:17.906Z,64.05
2023-06-04T04:11:21.823Z,64.29
2023-06-04T04:14:24.639Z,63.72
2023-06-04T04:17:27.617Z,64.01
2023-06-04T04:20:30.854Z,66.37
2023-06-04T04:23:43.358Z,66.19
2023-06-04T04:26:47.633Z,67.82
2023-06-04T04:29:50.504Z,68.45
2023-06-04T04:32:53.214Z,67.51
2023-06-04T04:36:15.247Z,67.30
2023-06-04T04:39:26.930Z,67.46
2023-06-04T04:42:32.579Z,67.38
2023-06-04T04:45:36.860Z,66.52
2023-06-04T04:48:43.560Z,67.07
2023-06-04T04:51:46.334Z,65.29
2023-06-04T04:54:49.219Z,65.28
2023-06-04T04:57:52.272Z,64.83
2023-06-04T05:00:56.179Z,66.39
2023-06-04T05:03:59.520Z,65.57
2023-06-04T05:07:03.477Z,65.42
2023-06-04T05:10:06.655Z,67.55
2023-06-04T05:13:12.353Z,67.84
2023-06-04T05:16:23.926Z,69.09
2023-06-04T05:19:26.972Z,69.66
2023-06-04T05:22:30.223Z,67.47
2023-06-04T05:25:33.143Z,68.19
2023-06-04T05:28:39.875Z,67.06
2023-06-04T05:31:43.074Z,67.79
2023-06-04T05:34:48.426Z,69.51
2023-06-04T05:37:55.247Z,70.00
2023-06-04T05:41:02.197Z,69.95
2023-06-04T05:44:09.158Z,69.22
2023-06-04T05:47:11.912Z,70.68
2023-06-04T05:50:14.865Z,69.50
2023-06-04T05:53:17.548Z,68.52
2023-06-04T05:56:22.941Z,66.60
2023-06-04T05:59:26.305Z,66.46
2023-06-04T06:02:29.188Z,64.39
2023-06-04T06:05:32.051Z,62.92
2023-06-04T06:08:35.110Z,61.02
2023-06-04T06:11:38.099Z,63.56
2023-06-04T06:14:41.193Z,64.69
2023-06-04T06:17:43.942Z,63.47
2023-06-04T06:20:47.215Z,62.94
2023-06-04T06:23:49.972Z,62.41
2023-06-04T06:26:53.013Z,63.71
2023-06-04T06:29:55.764Z,63.88
2023-06-04T06:32:58.767Z,63.82
2023-06-04T06:36:01.411Z,65.47
2023-06-04T06:39:04.580Z,62.96
2023-06-04T06:42:07.320Z,62.54
2023-06-04T06:45:14.487Z,62.50
2023-06-04T06:48:17.189Z,61.55
2023-06-04T06:51:19.944Z,61.48
2023-06-04T06:54:23.006Z,61.25
2023-06-04T06:57:25.741Z,61.58
2023-06-04T07:00:29.322Z,58.81
2023-06-04T07:03:32.564Z,61.35
2023-06-04T07:06:37.011Z,60.93
2023-06-04T07:09:39.640Z,59.17
2023-06-04T07:12:43.754Z,59.28
2023-06-04T07:15:46.605Z,60.88
2023-06-04T07:18:52.401Z,59.46
2023-06-04T07:21:56.904Z,59.10
2023-06-04T07:24:59.704Z,57.85
2023-06-04T07:28:05.070Z,57.46
2023-06-04T07:31:08.068Z,60.67
2023-06-04T07:34:10.900Z,60.59
2023-06-04T07:37:15.091Z,58.36
2023-06-04T07:40:18.559Z,58.13
2023-06-04T07:43:21.303Z,58.27
2023-06-04T07:46:23.927Z,55.99
2023-06-04T07:49:26.595Z,60.47
2023-06-04T07:52:29.352Z,56.45
2023-06-04T07:55:33.105Z,58.83
2023-06-04T07:58:35.810Z,56.50
2023-06-04T08:01:38.426Z,56.10
2023-06-04T08:04:41.361Z,54.47
2023-06-04T08:07:44.528Z,55.59
2023-06-04T08:10:47.271Z,53.70
2023-06-04T08:13:50.326Z,50.30
2023-06-04T08:16:53.077Z,51.51
2023-06-04T08:19:57.093Z,48.65
2023-06-04T08:22:59.742Z,49.82
2023-06-04T08:26:02.952Z,48.63
2023-06-04T08:29:05.764Z,50.57
2023-06-04T08:32:09.129Z,51.48
2023-06-04T08:35:11.990Z,52.21
2023-06-04T08:38:14.684Z,51.91
2023-06-04T08:41:30.769Z,51.40
2023-06-04T08:44:33.698Z,50.56
2023-06-04T08:47:36.982Z,52.72
2023-06-04T08:50:41.685Z,55.31
2023-06-04T08:53:45.118Z,54.65
2023-06-04T08:56:50.233Z,53.83
2023-06-04T08:59:52.926Z,53.84
2023-06-04T09:02:56.169Z,54.23
2023-06-04T09:05:59.643Z,53.72
2023-06-04T09:09:08.582Z,54.08
2023-06-04T09:12:13.142Z,53.59
2023-06-04T09:15:16.076Z,54.34
2023-06-04T09:18:18.653Z,54.35
2023-06-04T09:21:22.026Z,52.96
2023-06-04T09:24:26.734Z,52.65
2023-06-04T09:27:38.316Z,52.98
2023-06-04T09:30:51.579Z,52.25
2023-06-04T09:33:54.217Z,52.76
2023-06-04T09:36:57.761Z,51.41
2023-06-04T09:40:00.925Z,52.23
2023-06-04T09:43:03.861Z,52.58
2023-06-04T09:46:14.182Z,53.38
2023-06-04T09:49:17.673Z,55.65
2023-06-04T09:52:22.411Z,52.74
2023-06-04T09:55:25.170Z,52.63
2023-06-04T09:58:28.562Z,54.00
2023-06-04T10:01:31.641Z,54.71
2023-06-04T10:04:36.158Z,55.56
2023-06-04T10:07:39.778Z,55.44
2023-06-04T10:10:42.531Z,55.25
2023-06-04T10:13:49.507Z,55.41
2023-06-04T10:16:55.433Z,56.42
2023-06-04T10:19:59.461Z,55.32
2023-06-04T10:23:02.485Z,57.50
2023-06-04T10:26:05.196Z,56.32
2023-06-04T10:29:07.975Z,53.25
2023-06-04T10:32:10.721Z,53.04
2023-06-04T10:35:15.627Z,53.38
2023-06-04T10:38:20.123Z,54.97
2023-06-04T10:41:24.518Z,53.72
2023-06-04T10:44:27.196Z,53.25
2023-06-04T10:47:35.199Z,49.22
2023-06-04T10:50:51.181Z,49.38
2023-06-04T10:53:53.783Z,49.36
2023-06-04T10:56:57.889Z,47.70
2023-06-04T11:00:01.748Z,49.22
2023-06-04T11:03:09.822Z,48.26
2023-06-04T11:06:19.169Z,49.28
2023-06-04T11:09:21.867Z,47.96
2023-06-04T11:12:24.599Z,47.73
2023-06-04T11:15:27.307Z,48.33
2023-06-04T11:18:30.095Z,48.00
2023-06-04T11:21:37.600Z,46.34
2023-06-04T11:24:40.261Z,46.22
2023-06-04T11:27:42.919Z,45.76
2023-06-04T11:30:56.830Z,45.60
2023-06-04T11:34:02.139Z,45.83
2023-06-04T11:37:11.294Z,45.44
2023-06-04T11:40:21.574Z,45.14
2023-06-04T11:43:24.684Z,46.34
2023-06-04T11:46:27.393Z,47.17
2023-06-04T11:49:30.058Z,47.86
2023-06-04T11:52:34.409Z,47.20
2023-06-04T11:55:39.122Z,47.80
2023-06-04T11:58:42.913Z,46.94
2023-06-04T12:01:47.123Z,46.88
2023-06-04T12:04:49.763Z,45.69
2023-06-04T12:07:52.962Z,43.53
2023-06-04T12:10:55.744Z,44.23
2023-06-04T12:14:07.857Z,43.59
2023-06-04T12:17:10.659Z,42.99
2023-06-04T12:20:13.260Z,43.38
2023-06-04T12:23:22.696Z,41.29
2023-06-04T12:26:29.974Z,40.61
2023-06-04T12:29:32.853Z,40.26
2023-06-04T12:32:38.691Z,40.82
2023-06-04T12:35:41.356Z,39.96
2023-06-04T12:38:44.855Z,38.37
2023-06-04T12:41:48.732Z,40.45
2023-06-04T12:44:51.345Z,38.82
2023-06-04T12:47:54.081Z,40.46
2023-06-04T12:50:56.756Z,39.87
2023-06-04T12:53:59.628Z,38.93
2023-06-04T12:57:04.711Z,39.94
2023-06-04T13:00:08.600Z,37.40
2023-06-04T13:03:11.365Z,38.55
2023-06-04T13:06:14.043Z,36.99
2023-06-04T13:09:17.454Z,36.11
2023-06-04T13:12:20.135Z,35.27
2023-06-04T13:15:23.394Z,33.19
2023-06-04T13:18:26.119Z,31.47
2023-06-04T13:21:28.830Z,29.51
2023-06-04T13:24:31.674Z,29.41
2023-06-04T13:27:34.447Z,30.71
2023-06-04T13:30:41.423Z,30.21
2023-06-04T13:33:44.024Z,31.42
2023-06-04T13:36:46.669Z,34.17
2023-06-04T13:39:49.201Z,34.11
2023-06-04T13:42:51.843Z,32.62
2023-06-04T13:45:54.474Z,34.01
2023-06-04T13:48:57.958Z,33.69
2023-06-04T13:52:00.658Z,30.89
2023-06-04T13:55:03.415Z,31.53
2023-06-04T13:58:06.493Z,34.19
2023-06-04T14:01:09.387Z,35.52
2023-06-04T14:04:12.763Z,37.22
2023-06-04T14:07:15.418Z,37.04
2023-06-04T14:10:18.139Z,36.76
2023-06-04T14:13:20.962Z,31.28
2023-06-04T14:16:23.794Z,28.47
2023-06-04T14:19:26.448Z,29.73
2023-06-04T14:22:29.058Z,29.32
2023-06-04T14:25:33.849Z,33.84
2023-06-04T14:28:36.618Z,35.65
2023-06-04T14:31:39.286Z,37.35
2023-06-04T14:34:42.007Z,37.08
2023-06-04T14:37:44.714Z,37.46
2023-06-04T14:40:47.399Z,38.23
2023-06-04T14:43:50.064Z,38.96
2023-06-04T14:46:52.993Z,38.05
2023-06-04T14:49:55.662Z,35.47
2023-06-04T14:52:58.365Z,28.43
2023-06-04T14:56:01.165Z,26.78
2023-06-04T14:59:06.644Z,25.05
2023-06-04T15:02:09.406Z,25.58
2023-06-04T15:05:12.101Z,29.64
2023-06-04T15:08:14.820Z,30.20
2023-06-04T15:11:17.556Z,28.28
2023-06-04T15:14:20.209Z,27.66
2023-06-04T15:17:23.056Z,26.31
2023-06-04T15:20:28.577Z,25.26
2023-06-04T15:23:31.403Z,24.81
2023-06-04T15:26:34.109Z,29.48
2023-06-04T15:29:36.867Z,32.62
2023-06-04T15:32:39.577Z,34.87
2023-06-04T15:35:42.238Z,34.09
2023-06-04T15:38:44.919Z,35.36
2023-06-04T15:41:47.547Z,37.50
2023-06-04T15:44:50.241Z,36.54
2023-06-04T15:47:53.160Z,37.40
2023-06-04T15:50:55.911Z,38.73
2023-06-04T15:53:59.357Z,39.20
2023-06-04T15:57:02.603Z,40.48
2023-06-04T16:00:05.757Z,40.21
2023-06-04T16:03:08.300Z,40.84
2023-06-04T16:06:11.857Z,41.55
2023-06-04T16:09:14.504Z,41.58
2023-06-04T16:12:17.236Z,40.46
2023-06-04T16:15:19.999Z,40.69
2023-06-04T16:18:23.098Z,41.21
2023-06-04T16:21:27.136Z,41.81
2023-06-04T16:24:29.804Z,42.55
2023-06-04T16:27:33.131Z,44.14
2023-06-04T16:30:36.192Z,44.90
2023-06-04T16:33:38.805Z,45.85
2023-06-04T16:36:43.048Z,46.06
2023-06-04T16:39:45.734Z,47.71
2023-06-04T16:42:48.461Z,47.13
2023-06-04T16:45:51.306Z,47.50
2023-06-04T16:48:53.943Z,48.48
2023-06-04T16:51:56.644Z,48.21
2023-06-04T16:55:00.392Z,49.39
2023-06-04T16:58:03.120Z,49.97
2023-06-04T17:01:06.559Z,50.97
2023-06-04T17:04:09.154Z,51.42
2023-06-04T17:07:11.971Z,52.04
2023-06-04T17:10:14.628Z,52.04
2023-06-04T17:13:17.398Z,52.41
2023-06-04T17:16:20.134Z,53.43
2023-06-04T17:19:22.973Z,54.37
2023-06-04T17:22:26.014Z,54.97
2023-06-04T17:25:29.881Z,55.93
2023-06-04T17:28:32.605Z,57.08
2023-06-04T17:31:35.290Z,57.39
2023-06-04T17:34:38.255Z,57.87
2023-06-04T17:37:41.002Z,58.71
2023-06-04T17:40:43.673Z,58.79
2023-06-04T17:43:46.538Z,58.87
2023-06-04T17:46:49.188Z,59.38
2023-06-04T17:49:51.838Z,59.46
2023-06-04T17:52:54.518Z,59.71
2023-06-04T17:56:00.134Z,60.07
2023-06-04T17:59:06.956Z,60.41
2023-06-04T18:02:09.725Z,61.09
2023-06-04T18:05:12.528Z,61.42
2023-06-04T18:08:15.456Z,62.38
2023-06-04T18:11:18.719Z,62.82
2023-06-04T18:14:21.587Z,63.14
2023-06-04T18:17:24.160Z,64.10
2023-06-04T18:20:26.898Z,64.70
2023-06-04T18:23:29.600Z,64.65
2023-06-04T18:26:32.224Z,64.93
2023-06-04T18:29:34.841Z,65.36
2023-06-04T18:32:37.767Z,64.97
2023-06-04T18:35:40.528Z,65.17
2023-06-04T18:38:43.179Z,65.30
2023-06-04T18:41:47.452Z,65.54
2023-06-04T18:44:50.078Z,66.54
2023-06-04T18:47:52.739Z,66.74
2023-06-04T18:50:55.402Z,67.18
2023-06-04T18:53:58.131Z,67.18
2023-06-04T18:57:01.094Z,67.58
2023-06-04T19:00:08.703Z,67.91
2023-06-04T19:03:11.555Z,68.35
2023-06-04T19:06:14.308Z,68.21
2023-06-04T19:09:17.048Z,68.35
2023-06-04T19:12:19.729Z,68.51
2023-06-04T19:15:22.606Z,68.74
2023-06-04T19:18:25.355Z,68.79
2023-06-04T19:21:28.214Z,69.34
2023-06-04T19:24:30.898Z,69.35
2023-06-04T19:27:33.630Z,69.82
2023-06-04T19:30:36.400Z,70.15
2023-06-04T19:33:39.182Z,70.16
2023-06-04T19:36:42.035Z,70.26
2023-06-04T19:39:44.666Z,70.20
2023-06-04T19:42:47.328Z,70.25
2023-06-04T19:45:57.851Z,70.26
2023-06-04T19:49:00.695Z,70.23
2023-06-04T19:52:03.669Z,70.10
2023-06-04T19:55:09.133Z,70.04
2023-06-04T19:58:12.102Z,70.00
2023-06-04T20:01:14.872Z,70.52
2023-06-04T20:04:17.678Z,70.94
2023-06-04T20:07:21.054Z,71.92
2023-06-04T20:10:25.536Z,71.64
2023-06-04T20:13:28.251Z,71.89
2023-06-04T20:16:31.125Z,72.08
2023-06-04T20:19:33.753Z,72.32
2023-06-04T20:22:36.502Z,73.37
2023-06-04T20:25:39.218Z,73.39
2023-06-04T20:28:41.886Z,73.63
2023-06-04T20:31:44.561Z,73.11
2023-06-04T20:34:47.169Z,73.56
2023-06-04T20:37:50.182Z,73.55
2023-06-04T20:40:52.769Z,73.93
2023-06-04T20:43:56.311Z,73.88
2023-06-04T20:46:59.006Z,73.20
2023-06-04T20:50:01.743Z,74.06
2023-06-04T20:53:04.486Z,73.93
2023-06-04T20:56:07.358Z,74.46
2023-06-04T20:59:10.236Z,74.72
2023-06-04T21:02:15.830Z,74.76
2023-06-04T21:05:18.617Z,75.13
2023-06-04T21:08:21.656Z,75.84
2023-06-04T21:11:24.423Z,75.92
2023-06-04T21:14:27.014Z,75.67
2023-06-04T21:17:32.017Z,75.77
2023-06-04T21:20:35.705Z,75.95
2023-06-04T21:23:38.526Z,75.06
2023-06-04T21:26:41.568Z,74.96
2023-06-04T21:29:44.245Z,75.24
2023-06-04T21:32:47.000Z,74.54
2023-06-04T21:35:49.656Z,74.16
2023-06-04T21:38:52.333Z,74.56
2023-06-04T21:41:54.996Z,74.06
2023-06-04T21:44:57.671Z,74.46
2023-06-04T21:48:03.674Z,74.86
2023-06-04T21:51:07.623Z,76.93
2023-06-04T21:54:11.108Z,76.37
2023-06-04T21:57:13.810Z,76.59
2023-06-04T22:00:17.110Z,77.52
2023-06-04T22:03:19.824Z,77.98
2023-06-04T22:06:22.930Z,77.76
2023-06-04T22:09:25.631Z,77.93
2023-06-04T22:12:28.686Z,78.52
2023-06-04T22:15:31.487Z,78.83
2023-06-04T22:18:48.120Z,79.57
2023-06-04T22:21:55.259Z,79.96
2023-06-04T22:24:57.820Z,80.35
2023-06-04T22:28:00.560Z,80.18
2023-06-04T22:31:03.222Z,79.97
2023-06-04T22:34:06.288Z,80.31
2023-06-04T22:37:08.965Z,80.84
2023-06-04T22:40:14.424Z,81.17
2023-06-04T22:43:17.136Z,81.68
2023-06-04T22:46:19.835Z,82.36
2023-06-04T22:49:22.638Z,82.15
2023-06-04T22:52:27.043Z,82.08
2023-06-04T22:55:29.803Z,82.22
2023-06-04T22:58:32.491Z,83.04
2023-06-04T23:01:35.233Z,83.20
2023-06-04T23:04:37.959Z,83.61
2023-06-04T23:07:42.183Z,84.24
2023-06-04T23:10:45.446Z,83.56
2023-06-04T23:13:48.012Z,82.73
2023-06-04T23:16:50.858Z,82.91
2023-06-04T23:19:53.658Z,82.84
2023-06-04T23:22:56.440Z,83.38
2023-06-04T23:25:59.203Z,83.78
2023-06-04T23:29:02.848Z,83.61
2023-06-04T23:32:05.894Z,83.21
2023-06-04T23:35:09.059Z,83.95
2023-06-04T23:38:12.096Z,84.95
2023-06-04T23:41:14.803Z,84.95
2023-06-04T23:44:18.371Z,83.86
2023-06-04T23:47:21.181Z,84.20
2023-06-04T23:50:23.838Z,85.61
2023-06-04T23:53:27.082Z,85.79
2023-06-04T23:56:29.799Z,86.03
2023-06-04T23:59:32.526Z,86.44
